createdAt,value
2022-10-28T00:00:44.149Z,45.73
2022-10-28T00:01:44.266Z,45.73
2022-10-28T00:02:44.207Z,45.83
2022-10-28T00:03:44.109Z,45.73
2022-10-28T00:04:44.085Z,45.53
2022-10-28T00:05:44.097Z,45.22
2022-10-28T00:06:44.067Z,44.00
2022-10-28T00:07:44.045Z,42.98
2022-10-28T00:08:44.095Z,42.88
2022-10-28T00:09:44.025Z,42.98
2022-10-28T00:10:44.018Z,42.98
2022-10-28T00:11:43.998Z,42.88
2022-10-28T00:12:43.977Z,42.68
2022-10-28T00:13:43.974Z,42.88
2022-10-28T00:14:44.009Z,42.88
2022-10-28T00:15:46.940Z,42.77
2022-10-28T00:16:46.928Z,42.77
2022-10-28T00:17:43.908Z,42.68
2022-10-28T00:18:43.905Z,42.68
2022-10-28T00:19:43.879Z,42.68
2022-10-28T00:20:43.923Z,42.77
2022-10-28T00:21:43.864Z,42.98
2022-10-28T00:22:43.845Z,43.08
2022-10-28T00:23:43.832Z,43.29
2022-10-28T00:24:43.813Z,43.49
2022-10-28T00:25:43.801Z,43.69
2022-10-28T00:26:43.815Z,43.91
2022-10-28T00:27:43.773Z,44.12
2022-10-28T00:28:43.767Z,44.02
2022-10-28T00:29:43.743Z,43.51
2022-10-28T00:30:43.744Z,43.10
2022-10-28T00:31:43.743Z,42.90
2022-10-28T00:32:43.703Z,42.80
2022-10-28T00:33:43.711Z,42.59
2022-10-28T00:34:43.675Z,42.59
2022-10-28T00:35:46.675Z,42.59
2022-10-28T00:36:46.725Z,42.08
2022-10-28T00:37:43.637Z,41.55
2022-10-28T00:38:43.626Z,40.84
2022-10-28T00:39:43.605Z,40.74
2022-10-28T00:40:43.587Z,40.94
2022-10-28T00:41:43.586Z,41.05
2022-10-28T00:42:43.598Z,41.05
2022-10-28T00:43:43.592Z,41.14
2022-10-28T00:44:43.541Z,41.25
2022-10-28T00:45:43.528Z,41.25
2022-10-28T00:46:43.518Z,41.45
2022-10-28T00:47:43.500Z,41.45
2022-10-28T00:48:43.529Z,41.86
2022-10-28T00:49:43.469Z,41.96
2022-10-28T00:50:43.453Z,41.98
2022-10-28T00:51:43.520Z,41.96
2022-10-28T00:52:43.430Z,42.49
2022-10-28T00:53:43.419Z,42.49
2022-10-28T00:54:43.461Z,42.49
2022-10-28T00:55:46.391Z,42.49
2022-10-28T00:56:46.391Z,42.08
2022-10-28T00:57:43.372Z,41.57
2022-10-28T00:58:43.352Z,40.86
2022-10-28T00:59:43.325Z,40.76
2022-10-28T01:00:43.342Z,40.66
2022-10-28T01:01:43.419Z,40.23
2022-10-28T01:02:43.376Z,40.03
2022-10-28T01:03:43.283Z,39.92
2022-10-28T01:04:43.292Z,40.03
2022-10-28T01:05:43.250Z,39.92
2022-10-28T01:06:43.246Z,39.92
2022-10-28T01:07:43.215Z,40.12
2022-10-28T01:08:43.217Z,40.23
2022-10-28T01:09:43.261Z,40.33
2022-10-28T01:10:43.187Z,40.43
2022-10-28T01:11:43.167Z,39.92
2022-10-28T01:12:43.147Z,40.03
2022-10-28T01:13:43.144Z,39.42
2022-10-28T01:14:43.130Z,39.31
2022-10-28T01:15:46.158Z,39.21
2022-10-28T01:16:46.113Z,39.21
2022-10-28T01:17:43.078Z,39.21
2022-10-28T01:18:43.078Z,39.31
2022-10-28T01:19:50.567Z,39.31
2022-10-28T01:20:44.244Z,39.42
2022-10-28T01:21:43.049Z,39.62
2022-10-28T01:22:43.040Z,39.82
2022-10-28T01:23:43.000Z,40.23
2022-10-28T01:24:42.988Z,40.45
2022-10-28T01:25:42.972Z,40.66
2022-10-28T01:26:43.010Z,40.66
2022-10-28T01:27:42.942Z,40.35
2022-10-28T01:28:42.931Z,40.14
2022-10-28T01:29:42.910Z,39.94
2022-10-28T01:30:42.912Z,39.92
2022-10-28T01:31:42.891Z,39.92
2022-10-28T01:32:42.923Z,39.84
2022-10-28T01:33:42.866Z,39.72
2022-10-28T01:34:42.842Z,39.84
2022-10-28T01:35:45.834Z,39.84
2022-10-28T01:36:45.834Z,40.05
2022-10-28T01:37:42.811Z,40.05
2022-10-28T01:38:42.814Z,40.14
2022-10-28T01:39:42.774Z,40.25
2022-10-28T01:40:42.765Z,40.55
2022-10-28T01:41:42.757Z,40.96
2022-10-28T01:42:42.735Z,41.08
2022-10-28T01:43:42.747Z,40.88
2022-10-28T01:44:42.706Z,40.47
2022-10-28T01:45:42.696Z,40.17
2022-10-28T01:46:42.677Z,39.96
2022-10-28T01:47:42.668Z,39.55
2022-10-28T01:48:42.709Z,39.03
2022-10-28T01:49:42.637Z,38.82
2022-10-28T01:50:42.628Z,38.92
2022-10-28T01:51:42.618Z,38.92
2022-10-28T01:52:42.597Z,39.03
2022-10-28T01:53:42.591Z,39.13
2022-10-28T01:54:42.638Z,39.43
2022-10-28T01:55:45.559Z,39.64
2022-10-28T01:56:45.560Z,40.35
2022-10-28T01:57:42.529Z,40.47
2022-10-28T01:58:42.518Z,41.08
2022-10-28T01:59:42.501Z,41.39
2022-10-28T02:00:42.558Z,41.51
2022-10-28T02:01:42.815Z,41.71
2022-10-28T02:02:42.461Z,41.41
2022-10-28T02:03:42.453Z,41.92
2022-10-28T02:04:42.434Z,41.51
2022-10-28T02:05:42.423Z,41.51
2022-10-28T02:06:42.474Z,41.10
2022-10-28T02:07:42.393Z,40.90
2022-10-28T02:08:42.385Z,40.90
2022-10-28T02:09:42.372Z,40.90
2022-10-28T02:10:42.353Z,41.10
2022-10-28T02:11:42.346Z,41.10
2022-10-28T02:12:42.375Z,41.30
2022-10-28T02:13:42.314Z,41.30
2022-10-28T02:14:42.300Z,41.10
2022-10-28T02:15:45.286Z,41.10
2022-10-28T02:16:45.277Z,41.10
2022-10-28T02:17:42.256Z,41.20
2022-10-28T02:18:42.275Z,41.30
2022-10-28T02:19:42.226Z,41.61
2022-10-28T02:20:42.209Z,41.73
2022-10-28T02:21:42.238Z,41.83
2022-10-28T02:22:42.187Z,41.83
2022-10-28T02:23:42.177Z,42.04
2022-10-28T02:24:42.161Z,41.94
2022-10-28T02:25:42.148Z,41.94
2022-10-28T02:26:42.179Z,41.94
2022-10-28T02:27:42.119Z,41.94
2022-10-28T02:28:42.109Z,41.73
2022-10-28T02:29:42.090Z,41.53
2022-10-28T02:30:42.071Z,41.53
2022-10-28T02:31:42.063Z,41.42
2022-10-28T02:32:42.072Z,41.42
2022-10-28T02:33:42.062Z,41.63
2022-10-28T02:34:42.023Z,41.63
2022-10-28T02:35:45.012Z,41.83
2022-10-28T02:36:45.002Z,42.36
2022-10-28T02:37:41.986Z,42.26
2022-10-28T02:38:41.993Z,42.26
2022-10-28T02:39:41.953Z,42.16
2022-10-28T02:40:41.961Z,42.26
2022-10-28T02:41:41.924Z,42.36
2022-10-28T02:42:41.912Z,42.36
2022-10-28T02:43:41.955Z,42.36
2022-10-28T02:44:41.886Z,41.96
2022-10-28T02:45:41.872Z,41.63
2022-10-28T02:46:41.856Z,41.63
2022-10-28T02:47:41.846Z,41.33
2022-10-28T02:48:41.835Z,41.42
2022-10-28T02:49:41.872Z,41.12
2022-10-28T02:50:41.797Z,40.81
2022-10-28T02:51:41.798Z,40.71
2022-10-28T02:52:41.798Z,40.61
2022-10-28T02:53:41.758Z,40.61
2022-10-28T02:54:41.753Z,40.51
2022-10-28T02:55:44.760Z,40.49
2022-10-28T02:56:44.729Z,40.39
2022-10-28T02:57:41.717Z,40.19
2022-10-28T02:58:41.739Z,39.87
2022-10-28T02:59:41.680Z,39.67
2022-10-28T03:00:41.708Z,39.47
2022-10-28T03:01:41.782Z,39.17
2022-10-28T03:02:41.641Z,38.94
2022-10-28T03:03:41.629Z,38.94
2022-10-28T03:04:41.663Z,38.94
2022-10-28T03:05:41.602Z,38.94
2022-10-28T03:06:41.583Z,38.94
2022-10-28T03:07:41.571Z,39.45
2022-10-28T03:08:41.553Z,39.25
2022-10-28T03:09:41.549Z,39.25
2022-10-28T03:10:41.553Z,39.35
2022-10-28T03:11:41.516Z,39.45
2022-10-28T03:12:41.506Z,39.47
2022-10-28T03:13:41.488Z,39.47
2022-10-28T03:14:41.474Z,39.37
2022-10-28T03:15:44.495Z,39.35
2022-10-28T03:16:44.485Z,39.45
2022-10-28T03:17:41.436Z,39.35
2022-10-28T03:18:41.424Z,39.35
2022-10-28T03:19:41.434Z,39.35
2022-10-28T03:20:41.394Z,39.35
2022-10-28T03:21:41.387Z,39.45
2022-10-28T03:22:41.367Z,39.35
2022-10-28T03:23:41.359Z,39.35
2022-10-28T03:24:41.365Z,39.35
2022-10-28T03:25:41.328Z,39.35
2022-10-28T03:26:41.308Z,39.25
2022-10-28T03:27:41.300Z,39.35
2022-10-28T03:28:41.282Z,39.47
2022-10-28T03:29:44.941Z,39.47
2022-10-28T03:30:42.281Z,39.67
2022-10-28T03:31:41.252Z,39.67
2022-10-28T03:32:41.230Z,39.78
2022-10-28T03:33:41.219Z,40.08
2022-10-28T03:34:41.202Z,40.19
2022-10-28T03:35:44.251Z,40.19
2022-10-28T03:36:44.184Z,40.28
2022-10-28T03:37:41.164Z,40.28
2022-10-28T03:38:41.143Z,40.28
2022-10-28T03:39:41.133Z,40.28
2022-10-28T03:40:41.121Z,40.08
2022-10-28T03:41:41.135Z,39.78
2022-10-28T03:42:41.310Z,39.57
2022-10-28T03:43:41.076Z,39.57
2022-10-28T03:44:41.064Z,39.37
2022-10-28T03:45:41.055Z,39.17
2022-10-28T03:46:41.063Z,38.76
2022-10-28T03:47:41.025Z,38.35
2022-10-28T03:48:41.015Z,38.04
2022-10-28T03:49:40.996Z,37.72
2022-10-28T03:50:40.976Z,37.51
2022-10-28T03:51:41.040Z,37.51
2022-10-28T03:52:40.955Z,37.51
2022-10-28T03:53:40.947Z,37.51
2022-10-28T03:54:40.939Z,37.51
2022-10-28T03:55:43.916Z,37.62
2022-10-28T03:56:43.938Z,37.62
2022-10-28T03:57:40.889Z,37.62
2022-10-28T03:58:41.432Z,37.51
2022-10-28T03:59:40.859Z,37.31
2022-10-28T04:00:40.840Z,37.10
2022-10-28T04:01:41.045Z,37.09
2022-10-28T04:02:40.859Z,36.99
2022-10-28T04:03:40.807Z,37.09
2022-10-28T04:04:40.873Z,36.88
2022-10-28T04:05:40.780Z,36.88
2022-10-28T04:06:40.763Z,37.19
2022-10-28T04:07:40.753Z,37.09
2022-10-28T04:08:40.732Z,37.29
2022-10-28T04:09:42.693Z,37.41
2022-10-28T04:10:44.904Z,37.72
2022-10-28T04:11:41.702Z,37.92
2022-10-28T04:12:40.675Z,38.02
2022-10-28T04:13:40.697Z,38.12
2022-10-28T04:14:40.655Z,38.33
2022-10-28T04:15:43.634Z,38.33
2022-10-28T04:16:43.636Z,38.43
2022-10-28T04:17:40.615Z,38.43
2022-10-28T04:18:40.623Z,38.64
2022-10-28T04:19:40.586Z,38.74
2022-10-28T04:20:40.565Z,38.96
2022-10-28T04:21:40.557Z,39.17
2022-10-28T04:22:40.549Z,39.37
2022-10-28T04:23:40.584Z,39.57
2022-10-28T04:24:40.515Z,39.87
2022-10-28T04:25:40.498Z,39.98
2022-10-28T04:26:40.488Z,40.20
2022-10-28T04:27:40.477Z,40.30
2022-10-28T04:28:40.458Z,40.51
2022-10-28T04:29:40.471Z,40.20
2022-10-28T04:30:40.438Z,40.10
2022-10-28T04:31:40.429Z,39.90
2022-10-28T04:32:40.399Z,39.90
2022-10-28T04:33:40.390Z,39.79
2022-10-28T04:34:40.424Z,39.79
2022-10-28T04:35:43.360Z,39.79
2022-10-28T04:36:43.361Z,39.59
2022-10-28T04:37:40.340Z,39.39
2022-10-28T04:38:40.323Z,39.49
2022-10-28T04:39:40.311Z,39.17
2022-10-28T04:40:40.326Z,39.49
2022-10-28T04:41:40.283Z,39.39
2022-10-28T04:42:40.263Z,39.49
2022-10-28T04:43:40.271Z,39.39
2022-10-28T04:44:40.236Z,39.28
2022-10-28T04:45:40.225Z,38.78
2022-10-28T04:46:40.235Z,38.96
2022-10-28T04:47:40.213Z,38.96
2022-10-28T04:48:40.228Z,38.67
2022-10-28T04:49:40.175Z,38.65
2022-10-28T04:50:40.156Z,38.65
2022-10-28T04:51:40.179Z,38.76
2022-10-28T04:52:40.126Z,38.98
2022-10-28T04:53:40.117Z,39.08
2022-10-28T04:54:40.167Z,39.08
2022-10-28T04:55:43.099Z,39.28
2022-10-28T04:56:43.094Z,39.39
2022-10-28T04:57:40.058Z,39.49
2022-10-28T04:58:40.048Z,39.59
2022-10-28T04:59:40.040Z,39.61
2022-10-28T05:00:40.050Z,39.81
2022-10-28T05:01:40.053Z,40.01
2022-10-28T05:02:43.829Z,40.12
2022-10-28T05:03:40.980Z,40.32
2022-10-28T05:04:39.968Z,40.44
2022-10-28T05:05:39.998Z,41.06
2022-10-28T05:06:39.940Z,40.65
2022-10-28T05:07:39.921Z,40.85
2022-10-28T05:08:39.913Z,40.75
2022-10-28T05:09:39.892Z,40.44
2022-10-28T05:10:39.884Z,40.03
2022-10-28T05:11:39.894Z,39.83
2022-10-28T05:12:39.860Z,39.81
2022-10-28T05:13:39.841Z,39.94
2022-10-28T05:14:39.833Z,40.03
2022-10-28T05:15:42.818Z,40.34
2022-10-28T05:16:42.844Z,40.44
2022-10-28T05:17:39.784Z,40.55
2022-10-28T05:18:39.830Z,40.75
2022-10-28T05:19:39.764Z,40.65
2022-10-28T05:20:39.745Z,40.55
2022-10-28T05:21:39.726Z,40.14
2022-10-28T05:22:39.786Z,40.03
2022-10-28T05:23:39.704Z,40.03
2022-10-28T05:24:39.695Z,40.14
2022-10-28T05:25:39.676Z,40.24
2022-10-28T05:26:39.666Z,40.46
2022-10-28T05:27:39.647Z,40.67
2022-10-28T05:28:39.707Z,40.67
2022-10-28T05:29:39.628Z,40.87
2022-10-28T05:30:39.608Z,40.87
2022-10-28T05:31:39.590Z,40.87
2022-10-28T05:32:39.590Z,40.97
2022-10-28T05:33:39.561Z,41.08
2022-10-28T05:34:39.579Z,40.97
2022-10-28T05:35:42.537Z,41.08
2022-10-28T05:36:42.543Z,41.18
2022-10-28T05:37:39.511Z,41.28
2022-10-28T05:38:39.501Z,41.08
2022-10-28T05:39:39.508Z,41.28
2022-10-28T05:40:39.478Z,40.87
2022-10-28T05:41:39.462Z,40.87
2022-10-28T05:42:39.441Z,40.97
2022-10-28T05:43:39.453Z,40.97
2022-10-28T05:44:39.483Z,41.09
2022-10-28T05:45:39.406Z,41.08
2022-10-28T05:46:39.394Z,41.09
2022-10-28T05:47:40.177Z,41.20
2022-10-28T05:48:39.363Z,41.20
2022-10-28T05:49:39.344Z,41.20
2022-10-28T05:50:39.363Z,41.30
2022-10-28T05:51:39.323Z,41.30
2022-10-28T05:52:39.311Z,40.89
2022-10-28T05:53:39.288Z,40.99
2022-10-28T05:54:39.308Z,40.99
2022-10-28T05:55:46.761Z,40.99
2022-10-28T05:56:43.267Z,40.99
2022-10-28T05:57:39.237Z,40.89
2022-10-28T05:58:39.246Z,40.79
2022-10-28T05:59:39.238Z,40.79
2022-10-28T06:00:39.198Z,40.69
2022-10-28T06:01:39.303Z,40.69
2022-10-28T06:02:39.171Z,40.58
2022-10-28T06:03:39.166Z,40.48
2022-10-28T06:04:39.172Z,40.48
2022-10-28T06:05:39.169Z,40.48
2022-10-28T06:06:39.117Z,40.38
2022-10-28T06:07:39.091Z,40.48
2022-10-28T06:08:39.080Z,40.48
2022-10-28T06:09:39.079Z,40.48
2022-10-28T06:10:39.059Z,40.48
2022-10-28T06:11:37.594Z,40.48
2022-10-28T06:12:37.595Z,40.48
2022-10-28T06:13:37.478Z,40.48
2022-10-28T06:14:37.468Z,40.58
2022-10-28T06:15:40.451Z,40.58
2022-10-28T06:16:40.498Z,40.58
2022-10-28T06:17:37.430Z,40.48
2022-10-28T06:18:37.414Z,40.08
2022-10-28T06:19:37.405Z,39.97
2022-10-28T06:20:37.400Z,39.85
2022-10-28T06:21:37.377Z,39.64
2022-10-28T06:22:37.408Z,39.64
2022-10-28T06:23:37.350Z,39.64
2022-10-28T06:24:37.343Z,39.54
2022-10-28T06:25:37.323Z,39.54
2022-10-28T06:26:37.313Z,39.44
2022-10-28T06:27:37.294Z,39.44
2022-10-28T06:28:37.316Z,39.54
2022-10-28T06:29:37.266Z,39.54
2022-10-28T06:30:37.268Z,39.44
2022-10-28T06:31:37.269Z,39.54
2022-10-28T06:32:37.260Z,39.54
2022-10-28T06:33:37.382Z,39.54
2022-10-28T06:34:37.211Z,39.64
2022-10-28T06:35:40.195Z,39.64
2022-10-28T06:36:40.199Z,39.75
2022-10-28T06:37:37.166Z,39.75
2022-10-28T06:38:37.156Z,39.75
2022-10-28T06:39:37.189Z,39.85
2022-10-28T06:40:37.129Z,39.85
2022-10-28T06:41:37.121Z,39.85
2022-10-28T06:42:37.106Z,39.85
2022-10-28T06:43:37.084Z,39.85
2022-10-28T06:44:37.075Z,39.85
2022-10-28T06:45:37.085Z,39.85
2022-10-28T06:46:38.570Z,39.64
2022-10-28T06:47:41.420Z,39.64
2022-10-28T06:48:38.541Z,39.64
2022-10-28T06:49:38.525Z,39.53
2022-10-28T06:50:38.546Z,39.53
2022-10-28T06:51:38.498Z,39.53
2022-10-28T06:52:38.499Z,39.32
2022-10-28T06:53:38.470Z,39.42
2022-10-28T06:54:38.490Z,39.42
2022-10-28T06:55:41.440Z,39.53
2022-10-28T06:56:41.442Z,39.62
2022-10-28T06:57:38.415Z,39.53
2022-10-28T06:58:38.404Z,39.73
2022-10-28T06:59:38.464Z,39.73
2022-10-28T07:00:38.385Z,39.83
2022-10-28T07:01:38.448Z,39.94
2022-10-28T07:02:42.742Z,39.94
2022-10-28T07:03:39.342Z,39.83
2022-10-28T07:04:38.331Z,39.94
2022-10-28T07:05:38.341Z,39.94
2022-10-28T07:06:38.304Z,39.94
2022-10-28T07:07:38.295Z,39.83
2022-10-28T07:08:38.348Z,39.83
2022-10-28T07:09:38.266Z,39.73
2022-10-28T07:10:38.257Z,39.83
2022-10-28T07:11:38.238Z,39.83
2022-10-28T07:12:38.233Z,39.94
2022-10-28T07:13:38.211Z,39.71
2022-10-28T07:14:38.231Z,39.61
2022-10-28T07:15:41.184Z,39.51
2022-10-28T07:16:41.196Z,39.40
2022-10-28T07:17:38.165Z,39.30
2022-10-28T07:18:38.155Z,39.20
2022-10-28T07:19:38.177Z,39.08
2022-10-28T07:20:38.130Z,39.08
2022-10-28T07:21:38.113Z,38.87
2022-10-28T07:22:38.101Z,38.98
2022-10-28T07:23:38.081Z,38.87
2022-10-28T07:24:38.072Z,38.87
2022-10-28T07:25:38.084Z,38.87
2022-10-28T07:26:38.074Z,38.67
2022-10-28T07:27:38.032Z,38.45
2022-10-28T07:28:38.016Z,38.35
2022-10-28T07:29:38.005Z,38.35
2022-10-28T07:30:37.998Z,38.14
2022-10-28T07:31:38.005Z,37.82
2022-10-28T07:32:37.968Z,37.82
2022-10-28T07:33:37.955Z,37.72
2022-10-28T07:34:37.940Z,37.41
2022-10-28T07:35:40.922Z,37.62
2022-10-28T07:36:40.982Z,37.49
2022-10-28T07:37:37.903Z,37.49
2022-10-28T07:38:37.891Z,37.60
2022-10-28T07:39:37.917Z,37.40
2022-10-28T07:40:37.866Z,37.29
2022-10-28T07:41:37.857Z,37.29
2022-10-28T07:42:37.873Z,35.95
2022-10-28T07:43:37.814Z,35.64
2022-10-28T07:44:37.805Z,35.02
2022-10-28T07:45:37.797Z,34.92
2022-10-28T07:46:37.775Z,34.71
2022-10-28T07:47:37.765Z,34.59
2022-10-28T07:48:37.775Z,34.49
2022-10-28T07:49:37.735Z,34.49
2022-10-28T07:50:37.737Z,34.70
2022-10-28T07:51:37.711Z,34.80
2022-10-28T07:52:37.716Z,34.80
2022-10-28T07:53:37.705Z,34.80
2022-10-28T07:54:37.670Z,34.99
2022-10-28T07:55:40.646Z,35.09
2022-10-28T07:56:40.653Z,35.09
2022-10-28T07:57:37.621Z,35.09
2022-10-28T07:58:37.651Z,35.09
2022-10-28T07:59:37.590Z,35.09
2022-10-28T08:00:37.617Z,35.19
2022-10-28T08:01:37.659Z,35.19
2022-10-28T08:02:37.552Z,35.19
2022-10-28T08:03:39.003Z,35.27
2022-10-28T08:04:37.557Z,35.38
2022-10-28T08:05:37.498Z,35.48
2022-10-28T08:06:37.583Z,35.48
2022-10-28T08:07:38.757Z,35.58
2022-10-28T08:08:37.450Z,35.88
2022-10-28T08:09:37.435Z,35.99
2022-10-28T08:10:37.450Z,35.99
2022-10-28T08:11:37.424Z,35.88
2022-10-28T08:12:37.390Z,36.19
2022-10-28T08:13:40.176Z,36.08
2022-10-28T08:14:37.370Z,36.38
2022-10-28T08:15:40.388Z,36.88
2022-10-28T08:16:40.347Z,36.58
2022-10-28T08:17:37.340Z,36.58
2022-10-28T08:18:37.304Z,36.88
2022-10-28T08:19:37.285Z,37.49
2022-10-28T08:20:37.275Z,36.99
2022-10-28T08:21:37.330Z,36.78
2022-10-28T08:22:37.246Z,37.19
2022-10-28T08:23:37.224Z,36.88
2022-10-28T08:24:37.213Z,36.99
2022-10-28T08:25:37.192Z,36.97
2022-10-28T08:26:37.184Z,37.27
2022-10-28T08:27:37.223Z,37.68
2022-10-28T08:28:37.155Z,37.17
2022-10-28T08:29:37.151Z,37.48
2022-10-28T08:30:56.676Z,37.68
2022-10-28T08:31:38.117Z,37.78
2022-10-28T08:32:37.116Z,37.98
2022-10-28T08:33:37.149Z,38.39
2022-10-28T08:34:39.505Z,38.49
2022-10-28T08:35:41.055Z,38.79
2022-10-28T08:36:40.117Z,38.78
2022-10-28T08:37:37.027Z,38.98
2022-10-28T08:38:38.761Z,39.18
2022-10-28T08:39:37.054Z,38.47
2022-10-28T08:40:36.989Z,38.57
2022-10-28T08:41:36.969Z,38.47
2022-10-28T08:42:36.961Z,38.98
2022-10-28T08:43:56.071Z,38.56
2022-10-28T08:44:37.998Z,39.78
2022-10-28T08:45:36.920Z,38.96
2022-10-28T08:46:36.902Z,39.06
2022-10-28T08:47:36.897Z,40.08
2022-10-28T08:48:36.874Z,40.28
2022-10-28T08:49:36.862Z,39.57
2022-10-28T08:50:36.910Z,39.78
2022-10-28T08:51:36.836Z,39.55
2022-10-28T08:52:36.825Z,40.06
2022-10-28T08:53:36.806Z,39.55
2022-10-28T08:54:36.798Z,39.55
2022-10-28T08:55:39.808Z,39.65
2022-10-28T08:56:39.778Z,40.04
2022-10-28T08:57:36.750Z,39.84
2022-10-28T08:58:36.751Z,40.34
2022-10-28T08:59:36.750Z,39.84
2022-10-28T09:00:36.719Z,40.04
2022-10-28T09:01:36.925Z,41.36
2022-10-28T09:02:36.682Z,41.16
2022-10-28T09:03:38.941Z,41.36
2022-10-28T09:04:36.714Z,41.85
2022-10-28T09:05:36.642Z,42.35
2022-10-28T09:06:36.633Z,42.46
2022-10-28T09:07:36.619Z,42.46
2022-10-28T09:08:36.601Z,43.26
2022-10-28T09:09:36.583Z,43.37
2022-10-28T09:10:36.607Z,44.36
2022-10-28T09:11:36.615Z,45.07
2022-10-28T09:12:36.549Z,45.07
2022-10-28T09:13:36.534Z,46.48
2022-10-28T09:14:36.526Z,47.09
2022-10-28T09:16:39.497Z,49.30
2022-10-28T09:17:36.478Z,49.50
2022-10-28T09:18:36.471Z,50.41
2022-10-28T09:19:36.451Z,51.73
2022-10-28T09:20:36.439Z,51.12
2022-10-28T09:21:36.450Z,51.50
2022-10-28T09:22:36.409Z,52.51
2022-10-28T09:23:36.389Z,52.51
2022-10-28T09:24:36.404Z,52.11
2022-10-28T09:25:36.384Z,52.89
2022-10-28T09:26:36.390Z,53.80
2022-10-28T09:27:36.339Z,53.90
2022-10-28T09:28:36.323Z,55.11
2022-10-28T09:29:38.101Z,56.94
2022-10-28T09:30:36.293Z,58.15
2022-10-28T09:31:36.284Z,58.93
2022-10-28T09:32:36.345Z,59.34
2022-10-28T09:33:36.259Z,60.05
2022-10-28T09:34:36.244Z,60.55
2022-10-28T09:35:39.224Z,60.42
2022-10-28T09:36:39.226Z,60.42
2022-10-28T09:37:36.194Z,60.62
2022-10-28T09:38:36.255Z,61.83
2022-10-28T09:39:36.164Z,63.02
2022-10-28T09:40:36.161Z,65.95
2022-10-28T09:41:36.147Z,65.54
2022-10-28T09:42:36.172Z,65.64
2022-10-28T09:43:36.129Z,65.71
2022-10-28T09:44:36.125Z,67.02
2022-10-28T09:45:36.090Z,68.33
2022-10-28T09:46:37.236Z,69.65
2022-10-28T09:47:36.067Z,69.35
2022-10-28T09:48:36.050Z,70.83
2022-10-28T09:49:36.080Z,71.84
2022-10-28T09:50:36.020Z,71.73
2022-10-28T09:51:36.013Z,71.64
2022-10-28T09:52:36.000Z,72.04
2022-10-28T09:53:36.362Z,72.41
2022-10-28T09:54:35.970Z,74.22
2022-10-28T09:55:38.990Z,75.43
2022-10-28T09:56:38.956Z,75.94
2022-10-28T09:57:35.935Z,76.44
2022-10-28T09:58:35.912Z,76.81
2022-10-28T09:59:35.930Z,76.91
2022-10-28T10:00:35.886Z,78.02
2022-10-28T10:01:35.998Z,78.42
2022-10-28T10:02:35.941Z,77.62
2022-10-28T10:03:35.875Z,77.78
2022-10-28T10:04:35.885Z,78.28
2022-10-28T10:05:35.825Z,78.79
2022-10-28T10:06:35.877Z,82.62
2022-10-28T10:07:35.794Z,82.58
2022-10-28T10:08:35.782Z,82.78
2022-10-28T10:09:35.764Z,82.38
2022-10-28T10:10:35.751Z,82.48
2022-10-28T10:11:35.739Z,84.65
2022-10-28T10:12:35.859Z,83.45
2022-10-28T10:13:35.706Z,83.65
2022-10-28T10:14:35.688Z,84.55
2022-10-28T10:15:38.681Z,86.02
2022-10-28T10:16:38.670Z,86.52
2022-10-28T10:17:35.660Z,86.43
2022-10-28T10:18:35.661Z,85.78
2022-10-28T10:19:35.642Z,86.28
2022-10-28T10:20:35.601Z,86.58
2022-10-28T10:21:35.595Z,86.04
2022-10-28T10:22:35.582Z,87.24
2022-10-28T10:23:35.620Z,87.24
2022-10-28T10:24:35.577Z,87.55
2022-10-28T10:25:35.533Z,89.22
2022-10-28T10:26:35.543Z,88.91
2022-10-28T10:27:35.505Z,90.22
2022-10-28T10:28:35.486Z,89.72
2022-10-28T10:29:35.495Z,89.62
2022-10-28T10:30:35.508Z,89.62
2022-10-28T10:31:35.449Z,89.47
2022-10-28T10:32:35.427Z,91.02
2022-10-28T10:33:35.417Z,91.18
2022-10-28T10:34:35.424Z,91.88
2022-10-28T10:35:38.407Z,90.98
2022-10-28T10:36:38.388Z,90.78
2022-10-28T10:37:35.368Z,90.48
2022-10-28T10:38:35.361Z,90.78
2022-10-28T10:39:35.338Z,90.13
2022-10-28T10:40:35.368Z,91.54
2022-10-28T10:41:35.315Z,90.44
2022-10-28T10:42:42.516Z,90.94
2022-10-28T10:43:36.310Z,91.24
2022-10-28T10:44:35.283Z,92.14
2022-10-28T10:45:35.301Z,92.24
2022-10-28T10:46:35.255Z,91.84
2022-10-28T10:47:35.264Z,91.24
2022-10-28T10:48:35.256Z,90.23
2022-10-28T10:49:35.211Z,91.14
2022-10-28T10:50:35.191Z,91.54
2022-10-28T10:51:37.472Z,91.64
2022-10-28T10:52:36.189Z,91.94
2022-10-28T10:53:35.147Z,91.34
2022-10-28T10:54:35.194Z,90.17
2022-10-28T10:55:38.117Z,90.13
2022-10-28T10:56:38.119Z,90.13
2022-10-28T10:57:35.093Z,90.28
2022-10-28T10:58:35.069Z,91.03
2022-10-28T10:59:35.081Z,90.84
2022-10-28T11:00:35.089Z,90.33
2022-10-28T11:01:35.210Z,89.63
2022-10-28T11:02:35.243Z,89.43
2022-10-28T11:03:35.023Z,89.33
2022-10-28T11:04:35.003Z,90.03
2022-10-28T11:05:38.069Z,90.28
2022-10-28T11:06:35.048Z,90.68
2022-10-28T11:07:34.956Z,91.18
2022-10-28T11:08:34.955Z,90.88
2022-10-28T11:09:34.945Z,90.73
2022-10-28T11:10:34.926Z,90.94
2022-10-28T11:11:34.951Z,90.73
2022-10-28T11:12:34.914Z,90.94
2022-10-28T11:13:34.886Z,90.23
2022-10-28T11:14:34.861Z,90.19
2022-10-28T11:15:37.859Z,90.69
2022-10-28T11:16:37.888Z,91.60
2022-10-28T11:17:34.889Z,91.96
2022-10-28T11:18:34.849Z,91.75
2022-10-28T11:19:34.799Z,92.46
2022-10-28T11:20:34.850Z,92.71
2022-10-28T11:21:34.982Z,93.81
2022-10-28T11:22:34.746Z,93.81
2022-10-28T11:23:34.776Z,93.81
2022-10-28T11:24:34.882Z,93.81
2022-10-28T11:25:34.764Z,93.67
2022-10-28T11:26:34.695Z,93.87
2022-10-28T11:27:34.680Z,94.57
2022-10-28T11:28:34.700Z,94.97
2022-10-28T11:29:34.683Z,94.57
2022-10-28T11:30:34.654Z,94.77
2022-10-28T11:31:34.634Z,94.43
2022-10-28T11:32:38.280Z,94.32
2022-10-28T11:33:35.791Z,94.23
2022-10-28T11:34:34.616Z,94.02
2022-10-28T11:35:37.577Z,93.73
2022-10-28T11:36:37.569Z,94.53
2022-10-28T11:37:34.547Z,94.43
2022-10-28T11:38:34.528Z,93.82
2022-10-28T11:39:34.579Z,94.23
2022-10-28T11:40:34.500Z,94.02
2022-10-28T11:41:34.488Z,93.93
2022-10-28T11:42:34.489Z,94.32
2022-10-28T11:43:34.460Z,94.37
2022-10-28T11:44:34.511Z,94.67
2022-10-28T11:45:34.462Z,94.07
2022-10-28T11:46:34.443Z,93.27
2022-10-28T11:47:34.414Z,93.07
2022-10-28T11:48:34.394Z,93.17
2022-10-28T11:49:34.381Z,93.37
2022-10-28T11:50:34.385Z,93.17
2022-10-28T11:51:34.359Z,93.87
2022-10-28T11:52:34.365Z,92.86
2022-10-28T11:53:34.330Z,92.82
2022-10-28T11:54:34.306Z,93.12
2022-10-28T11:55:37.294Z,94.12
2022-10-28T11:56:37.350Z,94.23
2022-10-28T11:57:34.268Z,94.32
2022-10-28T11:58:34.265Z,94.12
2022-10-28T11:59:34.240Z,96.13
2022-10-28T12:00:34.230Z,95.73
2022-10-28T12:01:34.358Z,95.03
2022-10-28T12:02:34.314Z,95.38
2022-10-28T12:03:34.180Z,95.18
2022-10-28T12:04:34.170Z,94.84
2022-10-28T12:05:34.160Z,95.94
2022-10-28T12:06:34.140Z,95.54
2022-10-28T12:07:34.171Z,96.04
2022-10-28T12:08:34.114Z,96.19
2022-10-28T12:09:34.142Z,95.89
2022-10-28T12:10:34.082Z,95.39
2022-10-28T12:11:34.075Z,95.54
2022-10-28T12:12:34.891Z,96.04
2022-10-28T12:13:34.046Z,95.95
2022-10-28T12:14:34.055Z,95.84
2022-10-28T12:15:37.025Z,96.34
2022-10-28T12:16:37.020Z,96.10
2022-10-28T12:17:34.021Z,96.04
2022-10-28T12:18:33.974Z,96.14
2022-10-28T12:19:33.965Z,96.04
2022-10-28T12:20:34.016Z,96.14
2022-10-28T12:22:33.918Z,96.14
2022-10-28T12:23:33.917Z,96.44
2022-10-28T12:24:33.896Z,96.14
2022-10-28T12:25:33.896Z,96.25
2022-10-28T12:26:33.890Z,96.25
2022-10-28T12:27:33.852Z,96.25
2022-10-28T12:28:33.832Z,95.95
2022-10-28T12:29:33.921Z,96.29
2022-10-28T12:30:33.832Z,96.39
2022-10-28T12:31:33.794Z,96.29
2022-10-28T12:32:33.784Z,96.29
2022-10-28T12:33:33.767Z,96.19
2022-10-28T12:34:33.844Z,96.34
2022-10-28T12:35:36.805Z,96.34
2022-10-28T12:36:36.739Z,96.04
2022-10-28T12:37:33.716Z,95.94
2022-10-28T12:38:33.696Z,96.04
2022-10-28T12:39:33.677Z,95.84
2022-10-28T12:40:33.664Z,95.73
2022-10-28T12:41:33.743Z,96.08
2022-10-28T12:42:33.648Z,95.88
2022-10-28T12:43:33.629Z,95.58
2022-10-28T12:44:33.609Z,95.78
2022-10-28T12:45:33.610Z,95.28
2022-10-28T12:46:33.579Z,95.58
2022-10-28T12:47:35.000Z,95.48
2022-10-28T12:48:33.580Z,95.58
2022-10-28T12:49:33.552Z,95.18
2022-10-28T12:50:33.540Z,95.08
2022-10-28T12:51:33.527Z,95.08
2022-10-28T12:52:33.502Z,94.98
2022-10-28T12:53:33.543Z,94.78
2022-10-28T12:54:33.482Z,94.88